الصفحة الرئيسية
METAR-TAF:

METAR-TAF

مطار :

مطار الرشيدية مولاي علي الشريف

الراشيدية, المغرب

دائرة عرض: 31-56N, خط طول: 004-24W, ارتفاع: 1034 متر

مراقبة الطقس الحالي

تاريخ ووقت الإصدار 42 دقيقة قبل الساعة 08:00UTC
ريح 7 عقدة من الشرق/الجنوب الشرقي
درجة الحرارة 15°درجة مئوية
الرطوبة 27%
ضغط 1019 hPa
الرؤية 10 كم أو أكثر
الغيوم لا تقل 1500 م ولا وجود لمزنة ركامية السحاب الأسود

METAR: GMFK 040800Z 12007KT CAVOK 15/M04 Q1019 NOSIG

زمن: 09:42 (08:42 UTC)

توقعات

تاريخ ووقت الإصدار 3ساعات و 42 دقيقة قبل الساعة 05:00UTC
التوقعات صالحة من04 الساعة 06 UTC إلى 05 الساعة 12 UTC
ريح 5 عقدة من الشرق
الرؤية 10 كم أو أكثر
غيوم قليلة على ارتفاع 2600 قدم
غيوم متفرقة على ارتفاع 8000 قدم
غيوم مفككة على ارتفاع 20000 قدم
أصبح
من 04 الساعة 08 UTC إلى 04 الساعة 10 UTC
الرؤية 10 كم أو أكثر
الغيوم لا تقل 1500 م ولا وجود لمزنة ركامية السحاب الأسود

TAF: GMFK 040500Z 0406/0512 08005KT 9999 FEW026 SCT080 BKN200 BECMG 0408/0410 CAVOK

أرصاد الطقس والتوقعات من أكثر من 4000 مطار (تقارير الطقس للمطار METAR والتنبؤ بالطقس بالمطارTAF).

المحطات المتاحة هي النقط الصفراء والحمراء على الخريطة.

حرك المؤشر فوق النقطة لمعرفة اسم المحطة.

ثم انقر لمعرفة أرصاد وتوقعات الطقس.

لتغيير الخارطة: اضغط على الأزرار الخضراء مع رمز الصليب الأسود للتكبير. على الزر الأخضر مع شرطة للتصغير، أو على الأسهم الخضراء للخرائط المجاورة.


METAR-TAF: